sensor_id;sensor_type;location;lat;lon;timestamp;pressure;altitude;pressure_sealevel;temperature;humidity
5651;BME280;40241;52.684;9.758;2024-02-21T00:00:33;101819.34;;;8.51;65.01
5651;BME280;40241;52.684;9.758;2024-02-21T00:02:58;101820.09;;;8.52;65.21
5651;BME280;40241;52.684;9.758;2024-02-21T00:05:27;101815.34;;;8.52;64.99
5651;BME280;40241;52.684;9.758;2024-02-21T00:07:52;101813.78;;;8.75;65.58
5651;BME280;40241;52.684;9.758;2024-02-21T00:10:17;101815.84;;;8.66;65.60
5651;BME280;40241;52.684;9.758;2024-02-21T00:12:43;101812.22;;;8.60;65.46
5651;BME280;40241;52.684;9.758;2024-02-21T00:15:09;101799.38;;;8.57;65.41
5651;BME280;40241;52.684;9.758;2024-02-21T00:17:34;101791.09;;;8.57;65.47
5651;BME280;40241;52.684;9.758;2024-02-21T00:19:59;101786.84;;;8.56;65.36
5651;BME280;40241;52.684;9.758;2024-02-21T00:22:24;101783.59;;;8.57;65.45
5651;BME280;40241;52.684;9.758;2024-02-21T00:24:53;101780.06;;;8.57;65.42
5651;BME280;40241;52.684;9.758;2024-02-21T00:27:18;101776.53;;;8.56;65.27
5651;BME280;40241;52.684;9.758;2024-02-21T00:29:44;101772.56;;;8.57;65.20
5651;BME280;40241;52.684;9.758;2024-02-21T00:32:09;101761.81;;;8.59;65.33
5651;BME280;40241;52.684;9.758;2024-02-21T00:34:34;101764.84;;;8.61;65.43
5651;BME280;40241;52.684;9.758;2024-02-21T00:37:00;101766.06;;;8.60;65.40
5651;BME280;40241;52.684;9.758;2024-02-21T00:39:26;101752.00;;;8.58;65.17
5651;BME280;40241;52.684;9.758;2024-02-21T00:41:51;101761.03;;;8.59;65.37
5651;BME280;40241;52.684;9.758;2024-02-21T00:44:16;101760.75;;;8.57;65.39
5651;BME280;40241;52.684;9.758;2024-02-21T00:46:42;101748.50;;;8.58;65.46
5651;BME280;40241;52.684;9.758;2024-02-21T00:49:07;101744.97;;;8.57;65.30
5651;BME280;40241;52.684;9.758;2024-02-21T00:51:32;101746.47;;;8.58;65.36
5651;BME280;40241;52.684;9.758;2024-02-21T00:53:58;101744.50;;;8.59;65.21
5651;BME280;40241;52.684;9.758;2024-02-21T00:56:23;101741.25;;;8.60;65.38
5651;BME280;40241;52.684;9.758;2024-02-21T00:58:48;101734.50;;;8.61;65.19
5651;BME280;40241;52.684;9.758;2024-02-21T01:01:21;101731.25;;;8.63;65.36
5651;BME280;40241;52.684;9.758;2024-02-21T01:03:46;101721.94;;;8.60;65.30
5651;BME280;40241;52.684;9.758;2024-02-21T01:06:11;101723.00;;;8.63;65.34
5651;BME280;40241;52.684;9.758;2024-02-21T01:08:37;101717.75;;;8.65;65.20
5651;BME280;40241;52.684;9.758;2024-02-21T01:11:02;101716.53;;;8.66;65.12
5651;BME280;40241;52.684;9.758;2024-02-21T01:13:27;101718.53;;;8.65;65.22
5651;BME280;40241;52.684;9.758;2024-02-21T01:15:53;101709.03;;;8.66;65.17
5651;BME280;40241;52.684;9.758;2024-02-21T01:18:19;101705.78;;;8.68;65.33
5651;BME280;40241;52.684;9.758;2024-02-21T01:20:44;101705.00;;;8.67;65.26
5651;BME280;40241;52.684;9.758;2024-02-21T01:23:09;101705.78;;;8.68;65.39
5651;BME280;40241;52.684;9.758;2024-02-21T01:25:35;101698.72;;;8.67;65.11
5651;BME280;40241;52.684;9.758;2024-02-21T01:28:00;101703.03;;;8.68;65.14
5651;BME280;40241;52.684;9.758;2024-02-21T01:30:25;101709.03;;;8.66;65.24
5651;BME280;40241;52.684;9.758;2024-02-21T01:32:50;101714.06;;;8.68;65.09
5651;BME280;40241;52.684;9.758;2024-02-21T01:35:16;101714.34;;;8.70;65.13
5651;BME280;40241;52.684;9.758;2024-02-21T01:37:41;101709.59;;;8.70;65.26
5651;BME280;40241;52.684;9.758;2024-02-21T01:40:07;101698.84;;;8.72;65.05
5651;BME280;40241;52.684;9.758;2024-02-21T01:42:32;101704.84;;;8.71;65.27
5651;BME280;40241;52.684;9.758;2024-02-21T01:44:58;101700.06;;;8.71;65.05
5651;BME280;40241;52.684;9.758;2024-02-21T01:47:23;101685.53;;;8.71;65.20
5651;BME280;40241;52.684;9.758;2024-02-21T01:49:49;101677.69;;;8.69;64.95
5651;BME280;40241;52.684;9.758;2024-02-21T01:52:15;101682.75;;;8.71;65.13
5651;BME280;40241;52.684;9.758;2024-02-21T01:54:42;101684.00;;;8.70;65.08
5651;BME280;40241;52.684;9.758;2024-02-21T01:57:08;101680.19;;;8.67;64.96
5651;BME280;40241;52.684;9.758;2024-02-21T01:59:34;101673.91;;;8.67;65.19
5651;BME280;40241;52.684;9.758;2024-02-21T02:02:01;101673.44;;;8.68;65.28
5651;BME280;40241;52.684;9.758;2024-02-21T02:04:27;101677.25;;;8.71;65.12
5651;BME280;40241;52.684;9.758;2024-02-21T02:06:54;101682.75;;;8.71;64.93
5651;BME280;40241;52.684;9.758;2024-02-21T02:09:20;101667.72;;;8.72;65.07
5651;BME280;40241;52.684;9.758;2024-02-21T02:11:45;101663.72;;;8.73;65.16
5651;BME280;40241;52.684;9.758;2024-02-21T02:14:10;101658.22;;;8.73;65.16
5651;BME280;40241;52.684;9.758;2024-02-21T02:16:36;101647.19;;;8.73;64.97
5651;BME280;40241;52.684;9.758;2024-02-21T02:19:01;101633.66;;;8.75;64.88
5651;BME280;40241;52.684;9.758;2024-02-21T02:21:34;101636.69;;;8.77;65.04
5651;BME280;40241;52.684;9.758;2024-02-21T02:24:04;101638.91;;;8.73;65.03
5651;BME280;40241;52.684;9.758;2024-02-21T02:26:30;101632.63;;;8.72;64.93
5651;BME280;40241;52.684;9.758;2024-02-21T02:28:55;101622.34;;;8.73;64.85
5651;BME280;40241;52.684;9.758;2024-02-21T02:31:20;101615.28;;;8.72;64.93
5651;BME280;40241;52.684;9.758;2024-02-21T02:33:45;101605.22;;;8.69;64.95
5651;BME280;40241;52.684;9.758;2024-02-21T02:36:11;101598.19;;;8.68;65.20
5651;BME280;40241;52.684;9.758;2024-02-21T02:38:36;101602.16;;;8.67;65.12
5651;BME280;40241;52.684;9.758;2024-02-21T02:41:02;101590.69;;;8.68;64.93
5651;BME280;40241;52.684;9.758;2024-02-21T02:43:27;101580.41;;;8.69;64.91
5651;BME280;40241;52.684;9.758;2024-02-21T02:45:53;101581.63;;;8.68;64.87
5651;BME280;40241;52.684;9.758;2024-02-21T02:48:18;101560.78;;;8.67;64.84
5651;BME280;40241;52.684;9.758;2024-02-21T02:50:45;101555.75;;;8.65;65.13
5651;BME280;40241;52.684;9.758;2024-02-21T02:53:11;101551.50;;;8.64;65.00
5651;BME280;40241;52.684;9.758;2024-02-21T02:55:36;101555.75;;;8.65;65.32
5651;BME280;40241;52.684;9.758;2024-02-21T02:58:01;101545.97;;;8.64;65.04
5651;BME280;40241;52.684;9.758;2024-02-21T03:00:27;101539.69;;;8.64;65.09
5651;BME280;40241;52.684;9.758;2024-02-21T03:02:53;101524.66;;;8.65;64.99
5651;BME280;40241;52.684;9.758;2024-02-21T03:05:20;101531.44;;;8.64;64.93
5651;BME280;40241;52.684;9.758;2024-02-21T03:07:46;101529.44;;;8.64;65.09
5651;BME280;40241;52.684;9.758;2024-02-21T03:10:12;101518.41;;;8.64;65.00
5651;BME280;40241;52.684;9.758;2024-02-21T03:12:38;101530.16;;;8.65;64.96
5651;BME280;40241;52.684;9.758;2024-02-21T03:15:04;101521.88;;;8.65;65.08
5651;BME280;40241;52.684;9.758;2024-02-21T03:17:30;101530.16;;;8.65;64.78
5651;BME280;40241;52.684;9.758;2024-02-21T03:19:56;101535.69;;;8.65;64.92
5651;BME280;40241;52.684;9.758;2024-02-21T03:22:22;101519.63;;;8.63;64.98
5651;BME280;40241;52.684;9.758;2024-02-21T03:24:47;101520.13;;;8.62;64.90
5651;BME280;40241;52.684;9.758;2024-02-21T03:27:13;101513.63;;;8.65;65.02
5651;BME280;40241;52.684;9.758;2024-02-21T03:29:38;101509.63;;;8.66;64.82
5651;BME280;40241;52.684;9.758;2024-02-21T03:32:04;101515.16;;;8.66;64.84
5651;BME280;40241;52.684;9.758;2024-02-21T03:34:29;101494.78;;;8.63;65.03
5651;BME280;40241;52.684;9.758;2024-02-21T03:36:55;101505.06;;;8.63;64.88
5651;BME280;40241;52.684;9.758;2024-02-21T03:39:20;101510.31;;;8.61;64.83
5651;BME280;40241;52.684;9.758;2024-02-21T03:41:46;101509.09;;;8.62;65.09
5651;BME280;40241;52.684;9.758;2024-02-21T03:44:12;101502.31;;;8.63;64.88
5651;BME280;40241;52.684;9.758;2024-02-21T03:46:37;101493.75;;;8.61;64.91
5651;BME280;40241;52.684;9.758;2024-02-21T03:49:02;101498.81;;;8.62;64.85
5651;BME280;40241;52.684;9.758;2024-02-21T03:51:27;101495.56;;;8.64;65.01
5651;BME280;40241;52.684;9.758;2024-02-21T03:53:53;101505.84;;;8.63;64.94
5651;BME280;40241;52.684;9.758;2024-02-21T03:56:18;101517.16;;;8.65;64.94
5651;BME280;40241;52.684;9.758;2024-02-21T03:58:44;101533.78;;;8.71;64.86
5651;BME280;40241;52.684;9.758;2024-02-21T04:01:09;101539.31;;;8.71;64.70
5651;BME280;40241;52.684;9.758;2024-02-21T04:03:34;101546.31;;;8.72;64.63
5651;BME280;40241;52.684;9.758;2024-02-21T04:06:00;101549.56;;;8.70;64.56
5651;BME280;40241;52.684;9.758;2024-02-21T04:08:25;101547.31;;;8.69;64.59
5651;BME280;40241;52.684;9.758;2024-02-21T04:10:51;101541.56;;;8.72;64.77
5651;BME280;40241;52.684;9.758;2024-02-21T04:13:16;101538.53;;;8.70;64.48
5651;BME280;40241;52.684;9.758;2024-02-21T04:15:41;101535.28;;;8.72;64.73
5651;BME280;40241;52.684;9.758;2024-02-21T04:18:07;101534.78;;;8.73;64.50
5651;BME280;40241;52.684;9.758;2024-02-21T04:20:34;101532.81;;;8.74;64.93
5651;BME280;40241;52.684;9.758;2024-02-21T04:23:00;101519.78;;;8.74;64.44
5651;BME280;40241;52.684;9.758;2024-02-21T04:25:25;101530.53;;;8.72;64.58
5651;BME280;40241;52.684;9.758;2024-02-21T04:27:51;101535.28;;;8.72;64.47
5651;BME280;40241;52.684;9.758;2024-02-21T04:30:17;101533.78;;;8.71;64.64
5651;BME280;40241;52.684;9.758;2024-02-21T04:32:42;101524.25;;;8.72;64.58
5651;BME280;40241;52.684;9.758;2024-02-21T04:35:08;101531.28;;;8.73;64.53
5651;BME280;40241;52.684;9.758;2024-02-21T04:37:33;101528.31;;;8.76;64.63
5651;BME280;40241;52.684;9.758;2024-02-21T04:39:59;101535.09;;;8.75;64.29
5651;BME280;40241;52.684;9.758;2024-02-21T04:42:24;101524.06;;;8.75;64.43
5651;BME280;40241;52.684;9.758;2024-02-21T04:44:49;101536.59;;;8.76;64.50
5651;BME280;40241;52.684;9.758;2024-02-21T04:47:15;101533.63;;;8.80;64.59
5651;BME280;40241;52.684;9.758;2024-02-21T04:49:40;101531.16;;;8.82;64.43
5651;BME280;40241;52.684;9.758;2024-02-21T04:52:05;101518.59;;;8.81;64.34
5651;BME280;40241;52.684;9.758;2024-02-21T04:54:31;101523.63;;;8.82;64.56
5651;BME280;40241;52.684;9.758;2024-02-21T04:56:56;101529.91;;;8.83;64.72
5651;BME280;40241;52.684;9.758;2024-02-21T04:59:22;101532.63;;;8.77;64.55
5651;BME280;40241;52.684;9.758;2024-02-21T05:01:47;101530.59;;;8.78;64.63
5651;BME280;40241;52.684;9.758;2024-02-21T05:04:12;101528.53;;;8.73;64.59
5651;BME280;40241;52.684;9.758;2024-02-21T05:06:39;101513.44;;;8.68;64.81
5651;BME280;40241;52.684;9.758;2024-02-21T05:09:05;101518.19;;;8.68;64.80
5651;BME280;40241;52.684;9.758;2024-02-21T05:11:31;101510.41;;;8.66;65.01
5651;BME280;40241;52.684;9.758;2024-02-21T05:13:56;101523.44;;;8.66;65.10
5651;BME280;40241;52.684;9.758;2024-02-21T05:16:22;101509.63;;;8.66;64.98
5651;BME280;40241;52.684;9.758;2024-02-21T05:18:47;101512.13;;;8.64;64.94
5651;BME280;40241;52.684;9.758;2024-02-21T05:21:13;101514.88;;;8.64;65.16
5651;BME280;40241;52.684;9.758;2024-02-21T05:23:38;101514.09;;;8.63;65.09
5651;BME280;40241;52.684;9.758;2024-02-21T05:26:05;101506.59;;;8.64;65.07
5651;BME280;40241;52.684;9.758;2024-02-21T05:28:30;101505.34;;;8.65;65.22
5651;BME280;40241;52.684;9.758;2024-02-21T05:30:56;101504.78;;;8.61;65.24
5651;BME280;40241;52.684;9.758;2024-02-21T05:33:21;101504.34;;;8.62;65.19
5651;BME280;40241;52.684;9.758;2024-02-21T05:35:47;101497.56;;;8.63;65.09
5651;BME280;40241;52.684;9.758;2024-02-21T05:38:13;101498.06;;;8.62;65.38
5651;BME280;40241;52.684;9.758;2024-02-21T05:40:39;101493.75;;;8.61;65.32
5651;BME280;40241;52.684;9.758;2024-02-21T05:43:04;101498.06;;;8.62;65.36
5651;BME280;40241;52.684;9.758;2024-02-21T05:45:29;101504.50;;;8.59;65.36
5651;BME280;40241;52.684;9.758;2024-02-21T05:47:55;101504.50;;;8.59;65.41
5651;BME280;40241;52.684;9.758;2024-02-21T05:50:20;101505.28;;;8.59;65.14
5651;BME280;40241;52.684;9.758;2024-02-21T05:52:47;101501.75;;;8.59;65.27
5651;BME280;40241;52.684;9.758;2024-02-21T05:55:12;101492.94;;;8.54;65.29
5651;BME280;40241;52.684;9.758;2024-02-21T05:57:37;101489.13;;;8.52;65.50
5651;BME280;40241;52.684;9.758;2024-02-21T06:00:05;101492.09;;;8.48;65.52
5651;BME280;40241;52.684;9.758;2024-02-21T06:02:30;101498.38;;;8.49;65.42
5651;BME280;40241;52.684;9.758;2024-02-21T06:04:55;101487.63;;;8.51;65.53
5651;BME280;40241;52.684;9.758;2024-02-21T06:07:21;101488.38;;;8.51;65.64
5651;BME280;40241;52.684;9.758;2024-02-21T06:09:46;101482.84;;;8.51;65.67
5651;BME280;40241;52.684;9.758;2024-02-21T06:12:11;101490.38;;;8.51;65.64
5651;BME280;40241;52.684;9.758;2024-02-21T06:14:36;101492.88;;;8.49;65.75
5651;BME280;40241;52.684;9.758;2024-02-21T06:17:02;101494.88;;;8.48;65.64
5651;BME280;40241;52.684;9.758;2024-02-21T06:19:28;101490.59;;;8.47;65.80
5651;BME280;40241;52.684;9.758;2024-02-21T06:21:53;101487.81;;;8.47;65.83
5651;BME280;40241;52.684;9.758;2024-02-21T06:24:18;101494.59;;;8.46;65.99
5651;BME280;40241;52.684;9.758;2024-02-21T06:26:43;101487.81;;;8.47;65.98
5651;BME280;40241;52.684;9.758;2024-02-21T06:29:10;101491.63;;;8.50;65.74
5651;BME280;40241;52.684;9.758;2024-02-21T06:31:36;101484.28;;;8.47;65.99
5651;BME280;40241;52.684;9.758;2024-02-21T06:34:01;101487.53;;;8.45;66.02
5651;BME280;40241;52.684;9.758;2024-02-21T06:36:27;101488.03;;;8.44;66.02
5651;BME280;40241;52.684;9.758;2024-02-21T06:38:52;101477.41;;;8.37;66.23
5651;BME280;40241;52.684;9.758;2024-02-21T06:41:18;101478.44;;;8.39;66.03
5651;BME280;40241;52.684;9.758;2024-02-21T06:43:45;101482.72;;;8.40;66.03
5651;BME280;40241;52.684;9.758;2024-02-21T06:46:11;101479.94;;;8.40;66.15
5651;BME280;40241;52.684;9.758;2024-02-21T06:48:36;101472.66;;;8.37;66.22
5651;BME280;40241;52.684;9.758;2024-02-21T06:51:02;101475.69;;;8.39;66.17
5651;BME280;40241;52.684;9.758;2024-02-21T06:53:28;101470.94;;;8.40;66.24
5651;BME280;40241;52.684;9.758;2024-02-21T06:55:53;101478.72;;;8.41;66.37
5651;BME280;40241;52.684;9.758;2024-02-21T06:58:19;101476.44;;;8.40;65.99
5651;BME280;40241;52.684;9.758;2024-02-21T07:00:44;101476.50;;;8.45;66.05
5651;BME280;40241;52.684;9.758;2024-02-21T07:03:10;101484.28;;;8.47;66.07
5651;BME280;40241;52.684;9.758;2024-02-21T07:05:35;101478.31;;;8.48;66.35
5651;BME280;40241;52.684;9.758;2024-02-21T07:08:00;101485.34;;;8.49;66.31
5651;BME280;40241;52.684;9.758;2024-02-21T07:10:27;101502.16;;;8.51;66.10
5651;BME280;40241;52.684;9.758;2024-02-21T07:12:54;101492.66;;;8.52;66.21
5651;BME280;40241;52.684;9.758;2024-02-21T07:15:19;101484.38;;;8.52;66.13
5651;BME280;40241;52.684;9.758;2024-02-21T07:17:45;101487.91;;;8.53;66.20
5651;BME280;40241;52.684;9.758;2024-02-21T07:20:10;101484.38;;;8.52;66.12
5651;BME280;40241;52.684;9.758;2024-02-21T07:22:36;101484.09;;;8.50;66.10
5651;BME280;40241;52.684;9.758;2024-02-21T07:25:01;101497.91;;;8.50;66.16
5651;BME280;40241;52.684;9.758;2024-02-21T07:27:26;101488.38;;;8.51;65.87
5651;BME280;40241;52.684;9.758;2024-02-21T07:29:55;101490.38;;;8.51;66.31
5651;BME280;40241;52.684;9.758;2024-02-21T07:32:21;101482.84;;;8.51;66.18
5651;BME280;40241;52.684;9.758;2024-02-21T07:34:46;101487.16;;;8.52;66.21
5651;BME280;40241;52.684;9.758;2024-02-21T07:37:12;101486.94;;;8.56;66.11
5651;BME280;40241;52.684;9.758;2024-02-21T07:39:37;101493.47;;;8.59;66.09
5651;BME280;40241;52.684;9.758;2024-02-21T07:42:02;101500.25;;;8.58;66.16
5651;BME280;40241;52.684;9.758;2024-02-21T07:44:28;101503.47;;;8.56;66.32
5651;BME280;40241;52.684;9.758;2024-02-21T07:46:53;101497.00;;;8.59;66.12
5651;BME280;40241;52.684;9.758;2024-02-21T07:49:18;101505.84;;;8.63;66.20
5651;BME280;40241;52.684;9.758;2024-02-21T07:51:44;101501.84;;;8.64;66.26
5651;BME280;40241;52.684;9.758;2024-02-21T07:54:09;101506.78;;;8.60;66.27
5651;BME280;40241;52.684;9.758;2024-02-21T07:56:34;101502.03;;;8.61;66.09
5651;BME280;40241;52.684;9.758;2024-02-21T07:59:00;101497.28;;;8.61;66.28
5651;BME280;40241;52.684;9.758;2024-02-21T08:01:25;101495.56;;;8.64;66.23
5651;BME280;40241;52.684;9.758;2024-02-21T08:03:50;101494.31;;;8.65;66.29
5651;BME280;40241;52.684;9.758;2024-02-21T08:06:15;101493.84;;;8.66;66.10
5651;BME280;40241;52.684;9.758;2024-02-21T08:08:41;101489.38;;;8.69;66.22
5651;BME280;40241;52.684;9.758;2024-02-21T08:11:06;101493.63;;;8.70;66.28
5651;BME280;40241;52.684;9.758;2024-02-21T08:13:32;101477.06;;;8.70;65.90
5651;BME280;40241;52.684;9.758;2024-02-21T08:15:57;101479.84;;;8.70;66.16
5651;BME280;40241;52.684;9.758;2024-02-21T08:18:23;101477.06;;;8.70;66.18
5651;BME280;40241;52.684;9.758;2024-02-21T08:20:48;101481.63;;;8.73;66.18
5651;BME280;40241;52.684;9.758;2024-02-21T08:23:15;101484.66;;;8.75;66.01
5651;BME280;40241;52.684;9.758;2024-02-21T08:25:41;101466.84;;;8.76;65.92
5651;BME280;40241;52.684;9.758;2024-02-21T08:28:06;101463.91;;;8.79;65.92
5651;BME280;40241;52.684;9.758;2024-02-21T08:30:32;101457.41;;;8.82;66.02
5651;BME280;40241;52.684;9.758;2024-02-21T08:32:58;101455.94;;;8.87;65.76
5651;BME280;40241;52.684;9.758;2024-02-21T08:35:23;101455.00;;;8.90;65.91
5651;BME280;40241;52.684;9.758;2024-02-21T08:37:49;101457.81;;;8.95;65.87
5651;BME280;40241;52.684;9.758;2024-02-21T08:40:14;101452.34;;;9.01;65.69
5651;BME280;40241;52.684;9.758;2024-02-21T08:42:43;101458.41;;;9.05;65.70
5651;BME280;40241;52.684;9.758;2024-02-21T08:45:09;101448.13;;;9.05;65.54
5651;BME280;40241;52.684;9.758;2024-02-21T08:47:34;101445.16;;;9.09;65.49
5651;BME280;40241;52.684;9.758;2024-02-21T08:50:01;101448.72;;;9.15;65.35
5651;BME280;40241;52.684;9.758;2024-02-21T08:52:27;101448.56;;;9.24;65.29
5651;BME280;40241;52.684;9.758;2024-02-21T08:54:52;101438.06;;;9.28;65.06
5651;BME280;40241;52.684;9.758;2024-02-21T08:57:19;101436.81;;;9.29;65.17
5651;BME280;40241;52.684;9.758;2024-02-21T08:59:44;101433.63;;;9.36;65.10
5651;BME280;40241;52.684;9.758;2024-02-21T09:02:10;101427.63;;;9.43;64.80
5651;BME280;40241;52.684;9.758;2024-02-21T09:04:35;101434.69;;;9.44;64.91
5651;BME280;40241;52.684;9.758;2024-02-21T09:07:00;101430.41;;;9.43;64.61
5651;BME280;40241;52.684;9.758;2024-02-21T09:09:26;101430.13;;;9.41;64.75
5651;BME280;40241;52.684;9.758;2024-02-21T09:11:53;101439.72;;;9.46;64.76
5651;BME280;40241;52.684;9.758;2024-02-21T09:14:18;101440.47;;;9.46;64.61
5651;BME280;40241;52.684;9.758;2024-02-21T09:16:43;101432.47;;;9.48;64.56
5651;BME280;40241;52.684;9.758;2024-02-21T09:19:09;101438.78;;;9.54;64.64
5651;BME280;40241;52.684;9.758;2024-02-21T09:21:36;101434.38;;;9.62;64.40
5651;BME280;40241;52.684;9.758;2024-02-21T09:24:02;101438.91;;;9.65;64.45
5651;BME280;40241;52.684;9.758;2024-02-21T09:26:28;101424.88;;;9.69;64.33
5651;BME280;40241;52.684;9.758;2024-02-21T09:28:53;101430.66;;;9.71;64.39
5651;BME280;40241;52.684;9.758;2024-02-21T09:31:18;101434.47;;;9.73;64.16
5651;BME280;40241;52.684;9.758;2024-02-21T09:33:44;101429.47;;;9.77;64.02
5651;BME280;40241;52.684;9.758;2024-02-21T09:36:10;101419.19;;;9.83;64.13
5651;BME280;40241;52.684;9.758;2024-02-21T09:38:35;101419.78;;;9.93;64.13
5651;BME280;40241;52.684;9.758;2024-02-21T09:41:11;101413.25;;;9.96;63.37
5651;BME280;40241;52.684;9.758;2024-02-21T09:43:40;101412.22;;;9.93;63.47
5651;BME280;40241;52.684;9.758;2024-02-21T09:46:07;101415.75;;;9.94;63.73
5651;BME280;40241;52.684;9.758;2024-02-21T09:49:13;101416.50;;;9.94;62.95
5651;BME280;40241;52.684;9.758;2024-02-21T09:51:43;101424.03;;;9.94;63.46
5651;BME280;40241;52.684;9.758;2024-02-21T09:54:10;101414.44;;;9.89;63.38
5651;BME280;40241;52.684;9.758;2024-02-21T09:56:35;101421.09;;;10.09;62.75
5651;BME280;40241;52.684;9.758;2024-02-21T09:59:01;101413.53;;;10.03;63.06
5651;BME280;40241;52.684;9.758;2024-02-21T10:01:30;101413.53;;;10.03;63.04
5651;BME280;40241;52.684;9.758;2024-02-21T10:03:57;101407.00;;;10.07;63.22
5651;BME280;40241;52.684;9.758;2024-02-21T10:06:22;101400.75;;;10.12;63.04
5651;BME280;40241;52.684;9.758;2024-02-21T10:08:54;101407.31;;;10.14;62.62
5651;BME280;40241;52.684;9.758;2024-02-21T10:11:23;101409.06;;;10.12;62.40
5651;BME280;40241;52.684;9.758;2024-02-21T10:13:49;101401.28;;;10.10;62.81
5651;BME280;40241;52.684;9.758;2024-02-21T10:16:15;101394.00;;;10.13;62.77
5651;BME280;40241;52.684;9.758;2024-02-21T10:18:40;101402.28;;;10.13;62.54
5651;BME280;40241;52.684;9.758;2024-02-21T10:21:07;101394.00;;;10.13;62.64
5651;BME280;40241;52.684;9.758;2024-02-21T10:23:46;101396.00;;;10.18;62.25
5651;BME280;40241;52.684;9.758;2024-02-21T10:26:12;101396.06;;;10.29;61.65
5651;BME280;40241;52.684;9.758;2024-02-21T10:28:38;101387.00;;;10.28;62.03
5651;BME280;40241;52.684;9.758;2024-02-21T10:31:08;101386.00;;;10.26;61.88
5651;BME280;40241;52.684;9.758;2024-02-21T10:33:34;101374.94;;;10.26;61.96
5651;BME280;40241;52.684;9.758;2024-02-21T10:36:06;101374.44;;;10.33;61.24
5651;BME280;40241;52.684;9.758;2024-02-21T10:38:33;101372.72;;;10.35;61.82
5651;BME280;40241;52.684;9.758;2024-02-21T10:40:59;101359.94;;;10.43;61.74
5651;BME280;40241;52.684;9.758;2024-02-21T10:43:30;101359.16;;;10.48;61.53
5651;BME280;40241;52.684;9.758;2024-02-21T10:45:59;101351.88;;;10.51;61.38
5651;BME280;40241;52.684;9.758;2024-02-21T10:48:41;101350.41;;;10.61;60.45
5651;BME280;40241;52.684;9.758;2024-02-21T10:51:17;101349.69;;;10.71;60.43
5651;BME280;40241;52.684;9.758;2024-02-21T10:56:41;101329.09;;;10.84;58.81
5651;BME280;40241;52.684;9.758;2024-02-21T10:59:08;101328.09;;;10.87;60.59
5651;BME280;40241;52.684;9.758;2024-02-21T11:01:34;101327.84;;;10.90;60.57
5651;BME280;40241;52.684;9.758;2024-02-21T11:04:08;101327.84;;;11.01;59.80
5651;BME280;40241;52.684;9.758;2024-02-21T11:06:35;101327.34;;;11.08;60.07
5651;BME280;40241;52.684;9.758;2024-02-21T11:09:03;101325.06;;;11.12;60.18
5651;BME280;40241;52.684;9.758;2024-02-21T11:11:39;101322.81;;;11.16;60.04
5651;BME280;40241;52.684;9.758;2024-02-21T11:14:20;101310.47;;;11.23;59.36
5651;BME280;40241;52.684;9.758;2024-02-21T11:16:46;101307.47;;;11.26;59.71
5651;BME280;40241;52.684;9.758;2024-02-21T11:19:22;101304.41;;;11.30;59.11
5651;BME280;40241;52.684;9.758;2024-02-21T11:21:49;101295.84;;;11.33;59.83
5651;BME280;40241;52.684;9.758;2024-02-21T11:24:28;101292.06;;;11.36;58.40
5651;BME280;40241;52.684;9.758;2024-02-21T11:26:55;101312.22;;;11.26;59.36
5651;BME280;40241;52.684;9.758;2024-02-21T11:29:24;101288.06;;;11.15;58.92
5651;BME280;40241;52.684;9.758;2024-02-21T11:31:55;101281.03;;;11.09;59.23
5651;BME280;40241;52.684;9.758;2024-02-21T11:34:20;101282.00;;;11.11;59.09
5651;BME280;40241;52.684;9.758;2024-02-21T11:36:50;101280.03;;;11.06;58.55
5651;BME280;40241;52.684;9.758;2024-02-21T11:39:23;101275.47;;;11.03;58.82
5651;BME280;40241;52.684;9.758;2024-02-21T11:42:06;101274.47;;;11.06;58.19
5651;BME280;40241;52.684;9.758;2024-02-21T11:44:33;101263.16;;;11.10;59.12
5651;BME280;40241;52.684;9.758;2024-02-21T11:46:59;101264.41;;;11.09;58.83
5651;BME280;40241;52.684;9.758;2024-02-21T11:49:25;101256.09;;;11.09;58.95
5651;BME280;40241;52.684;9.758;2024-02-21T11:51:59;101264.16;;;11.07;56.97
5651;BME280;40241;52.684;9.758;2024-02-21T11:54:25;101247.53;;;11.01;58.65
5651;BME280;40241;52.684;9.758;2024-02-21T11:56:51;101235.47;;;11.04;58.62
5651;BME280;40241;52.684;9.758;2024-02-21T11:59:16;101230.19;;;11.06;58.83
5651;BME280;40241;52.684;9.758;2024-02-21T12:01:42;101220.34;;;11.11;58.45
5651;BME280;40241;52.684;9.758;2024-02-21T12:04:07;101217.06;;;11.12;58.43
5651;BME280;40241;52.684;9.758;2024-02-21T12:06:33;101216.06;;;11.15;58.09
5651;BME280;40241;52.684;9.758;2024-02-21T12:08:58;101207.75;;;11.21;58.18
5651;BME280;40241;52.684;9.758;2024-02-21T12:11:24;101214.00;;;11.27;57.89
5651;BME280;40241;52.684;9.758;2024-02-21T12:14:02;101200.41;;;11.29;56.94
5651;BME280;40241;52.684;9.758;2024-02-21T12:16:30;101206.47;;;11.33;57.85
5651;BME280;40241;52.684;9.758;2024-02-21T12:18:59;101200.38;;;11.40;57.58
5651;BME280;40241;52.684;9.758;2024-02-21T12:21:26;101193.31;;;11.44;57.64
5651;BME280;40241;52.684;9.758;2024-02-21T12:23:54;101199.34;;;11.48;57.58
5651;BME280;40241;52.684;9.758;2024-02-21T12:26:20;101195.31;;;11.49;57.12
5651;BME280;40241;52.684;9.758;2024-02-21T12:28:45;101188.75;;;11.52;57.25
5651;BME280;40241;52.684;9.758;2024-02-21T12:31:11;101186.47;;;11.51;56.85
5651;BME280;40241;52.684;9.758;2024-02-21T12:33:36;101187.75;;;11.44;56.94
5651;BME280;40241;52.684;9.758;2024-02-21T12:36:02;101188.81;;;11.41;57.03
5651;BME280;40241;52.684;9.758;2024-02-21T12:38:29;101183.50;;;11.38;56.88
5651;BME280;40241;52.684;9.758;2024-02-21T12:40:54;101175.47;;;11.34;56.75
5651;BME280;40241;52.684;9.758;2024-02-21T12:43:20;101173.94;;;11.39;56.78
5651;BME280;40241;52.684;9.758;2024-02-21T12:45:47;101171.38;;;11.46;56.73
5651;BME280;40241;52.684;9.758;2024-02-21T12:48:13;101158.25;;;11.58;56.71
5651;BME280;40241;52.684;9.758;2024-02-21T12:50:40;101175.63;;;11.59;56.42
5651;BME280;40241;52.684;9.758;2024-02-21T12:53:05;101177.09;;;11.65;56.42
5651;BME280;40241;52.684;9.758;2024-02-21T12:55:31;101167.25;;;11.70;56.16
5651;BME280;40241;52.684;9.758;2024-02-21T12:57:56;101168.25;;;11.72;56.20
5651;BME280;40241;52.684;9.758;2024-02-21T13:00:27;101168.22;;;11.78;56.11
5651;BME280;40241;52.684;9.758;2024-02-21T13:02:53;101167.22;;;11.75;55.83
5651;BME280;40241;52.684;9.758;2024-02-21T13:05:18;101145.59;;;11.68;55.82